Time;durP1;ratioP1;P1;durP2;ratioP2;P2;SDS_P1;SDS_P2;PMS_P1;PMS_P2;Temp;Humidity;BMP_temperature;BMP_pressure;BME280_temperature;BME280_humidity;BME280_pressure;Samples;Min_cycle;Max_cycle;Signal;HPM_P1;HPM_P2
2023/11/28 00:00:35;;;;;;;7.73;7.03;;;;;;;1.16;99.83;98951.25;7391544;19;20381;-61
2023/11/28 00:03:02;;;;;;;7.32;6.65;;;;;;;1.15;99.77;98956.66;7385493;19;20929;-63
2023/11/28 00:05:30;;;;;;;7.45;6.75;;;;;;;1.14;99.73;98953.19;7390281;19;20369;-61
2023/11/28 00:07:59;;;;;;;7.47;6.78;;;;;;;1.16;99.60;98948.63;7391031;19;20360;-62
2023/11/28 00:10:26;;;;;;;7.85;7.10;;;;;;;1.13;100.00;98956.81;7388356;19;20344;-63
2023/11/28 00:12:53;;;;;;;7.30;6.60;;;;;;;1.12;99.82;98955.16;7390814;19;20420;-62
2023/11/28 00:15:19;;;;;;;7.57;6.78;;;;;;;1.10;99.99;98964.94;7391367;19;20427;-62
2023/11/28 00:17:46;;;;;;;7.20;6.45;;;;;;;1.09;99.97;98960.69;7388260;19;20372;-63
2023/11/28 00:20:13;;;;;;;7.63;6.70;;;;;;;1.08;99.83;98964.28;7391224;19;20376;-62
2023/11/28 00:22:40;;;;;;;8.43;7.15;;;;;;;1.04;100.00;98957.72;7390501;19;20750;-62
2023/11/28 00:25:07;;;;;;;7.15;6.45;;;;;;;1.05;100.00;98963.78;7390574;19;20721;-62
2023/11/28 00:27:34;;;;;;;7.20;6.50;;;;;;;1.02;99.92;98964.91;7389911;19;20440;-62
2023/11/28 00:30:01;;;;;;;6.85;6.15;;;;;;;0.99;100.00;98960.81;7387142;19;20377;-64
2023/11/28 00:32:28;;;;;;;6.70;6.10;;;;;;;0.97;100.00;98967.16;7392258;19;20368;-63
2023/11/28 00:34:55;;;;;;;7.05;6.38;;;;;;;0.97;100.00;98956.72;7398689;19;20689;-63
2023/11/28 00:37:21;;;;;;;6.47;5.88;;;;;;;0.94;100.00;98962.25;7397793;19;20746;-63
2023/11/28 00:39:48;;;;;;;6.40;5.80;;;;;;;0.94;100.00;98957.03;7398998;19;20864;-63
2023/11/28 00:42:15;;;;;;;6.43;5.82;;;;;;;0.97;100.00;98961.94;7394623;19;20364;-64
2023/11/28 00:44:42;;;;;;;6.70;6.10;;;;;;;0.96;100.00;98961.13;7396815;19;20385;-62
2023/11/28 00:47:09;;;;;;;6.80;6.10;;;;;;;0.97;100.00;98972.38;7396451;19;20792;-63
2023/11/28 00:49:41;;;;;;;6.72;6.10;;;;;;;0.99;100.00;98962.59;7394459;19;20443;-63
2023/11/28 00:52:11;;;;;;;6.32;5.72;;;;;;;0.95;100.00;98969.09;7396573;19;20448;-62
2023/11/28 00:54:38;;;;;;;6.68;6.07;;;;;;;0.93;100.00;98968.44;7398144;19;20754;-62
2023/11/28 00:57:05;;;;;;;7.53;6.43;;;;;;;0.90;100.00;98972.19;7394690;19;20372;-63
2023/11/28 00:59:32;;;;;;;7.70;6.85;;;;;;;0.92;100.00;98974.66;7396080;19;20353;-61
2023/11/28 01:02:00;;;;;;;6.70;6.00;;;;;;;0.92;100.00;98974.66;7395587;19;20348;-62
2023/11/28 01:04:27;;;;;;;6.80;6.10;;;;;;;0.91;100.00;98978.22;7396558;19;20386;-62
2023/11/28 01:06:54;;;;;;;6.43;5.82;;;;;;;0.93;100.00;98981.50;7393985;19;20829;-63
2023/11/28 01:09:21;;;;;;;6.30;5.70;;;;;;;0.87;100.00;98980.34;7397202;19;20841;-64
2023/11/28 01:11:48;;;;;;;6.53;5.82;;;;;;;0.88;100.00;98984.59;7392627;19;20380;-65
2023/11/28 01:14:14;;;;;;;6.20;5.60;;;;;;;0.87;100.00;98976.91;7396786;19;20444;-65
2023/11/28 01:16:45;;;;;;;7.18;6.47;;;;;;;0.86;100.00;98983.09;7396199;19;20839;-65
2023/11/28 01:19:13;;;;;;;6.65;6.05;;;;;;;0.86;100.00;98985.72;7397369;19;20366;-65
2023/11/28 01:21:40;;;;;;;7.05;6.35;;;;;;;0.86;100.00;98986.53;7392589;19;20370;-65
2023/11/28 01:24:07;;;;;;;7.38;6.68;;;;;;;0.90;100.00;98992.25;7392519;19;20372;-65
2023/11/28 01:26:33;;;;;;;7.25;6.55;;;;;;;0.85;100.00;98995.34;7395230;19;20363;-65
2023/11/28 01:29:00;;;;;;;6.93;6.22;;;;;;;0.84;100.00;98993.69;7396465;19;20373;-64
2023/11/28 01:35:03;;;;;;;6.53;5.93;;;;;;;0.81;100.00;99000.03;7395611;19;20856;-64
2023/11/28 01:37:30;;;;;;;6.60;5.90;;;;;;;0.78;100.00;99005.56;7395202;19;20377;-63
2023/11/28 01:39:56;;;;;;;6.53;5.87;;;;;;;0.78;100.00;99002.13;7394774;19;20377;-62
2023/11/28 01:42:23;;;;;;;6.30;5.70;;;;;;;0.80;100.00;99001.00;7392661;19;20372;-62
2023/11/28 01:44:50;;;;;;;6.13;5.53;;;;;;;0.76;100.00;99004.88;7392775;19;20397;-63
2023/11/28 01:47:17;;;;;;;6.30;5.70;;;;;;;0.79;100.00;99009.81;7395974;19;20416;-64
2023/11/28 01:49:44;;;;;;;5.72;5.13;;;;;;;0.70;100.00;99005.53;7395784;19;20324;-63
2023/11/28 01:52:12;;;;;;;6.40;5.75;;;;;;;0.76;100.00;99004.88;7394212;19;20389;-63
2023/11/28 01:54:42;;;;;;;7.03;6.32;;;;;;;0.73;100.00;99004.41;7394415;19;20371;-62
2023/11/28 01:57:10;;;;;;;7.68;6.50;;;;;;;0.74;100.00;99016.47;7393779;19;20378;-61
2023/11/28 01:59:40;;;;;;;6.90;6.20;;;;;;;0.70;100.00;99015.13;7392520;19;20372;-63
2023/11/28 02:02:08;;;;;;;6.68;5.97;;;;;;;0.68;100.00;99015.31;7394066;19;20364;-62
2023/11/28 02:04:35;;;;;;;6.50;5.90;;;;;;;0.69;100.00;99022.13;7393267;19;20779;-63
2023/11/28 02:07:02;;;;;;;6.55;5.90;;;;;;;0.68;100.00;99017.91;7392702;19;20905;-64
2023/11/28 02:09:29;;;;;;;6.68;5.97;;;;;;;0.69;100.00;99023.94;7395287;19;20377;-63
2023/11/28 02:11:57;;;;;;;7.13;6.30;;;;;;;0.72;100.00;99023.63;7383274;19;20383;-64
2023/11/28 02:14:24;;;;;;;6.78;6.07;;;;;;;0.73;100.00;99033.09;7391968;19;20328;-64
2023/11/28 02:16:53;;;;;;;7.38;6.55;;;;;;;0.77;100.00;99027.44;7390709;19;20369;-63
2023/11/28 02:19:20;;;;;;;7.27;6.57;;;;;;;0.72;100.00;99027.06;7393029;19;20340;-63
2023/11/28 02:21:48;;;;;;;7.40;6.70;;;;;;;0.72;100.00;99026.22;7389525;19;20393;-63
2023/11/28 02:24:17;;;;;;;7.13;6.43;;;;;;;0.70;100.00;99036.84;7385540;19;20388;-62
2023/11/28 02:26:44;;;;;;;7.57;6.78;;;;;;;0.67;100.00;99034.53;7387510;19;20368;-63
2023/11/28 02:29:11;;;;;;;7.57;6.78;;;;;;;0.66;100.00;99038.13;7385897;19;20436;-63
2023/11/28 02:31:38;;;;;;;8.00;7.15;;;;;;;0.62;100.00;99047.22;7390162;19;20364;-62
2023/11/28 02:34:04;;;;;;;8.65;7.53;;;;;;;0.61;100.00;99042.97;7389613;19;20352;-63
2023/11/28 02:36:32;;;;;;;8.82;7.93;;;;;;;0.66;100.00;99048.56;7391137;19;20385;-62
2023/11/28 02:38:59;;;;;;;8.87;7.73;;;;;;;0.63;100.00;99051.44;7392549;19;21015;-61
2023/11/28 02:41:26;;;;;;;8.93;7.95;;;;;;;0.66;100.00;99045.94;7393526;19;20673;-62
2023/11/28 02:43:53;;;;;;;9.48;8.27;;;;;;;0.60;100.00;99043.94;7392993;19;20356;-61
2023/11/28 02:46:20;;;;;;;9.35;7.78;;;;;;;0.60;100.00;99044.75;7391670;19;20911;-62
2023/11/28 02:48:47;;;;;;;9.73;7.70;;;;;;;0.63;100.00;99054.06;7393559;19;20434;-63
2023/11/28 02:51:19;;;;;;;9.23;7.93;;;;;;;0.64;100.00;99054.88;7390907;19;20453;-61
2023/11/28 02:53:47;;;;;;;10.02;8.65;;;;;;;0.65;100.00;99056.53;7390103;19;20348;-64
2023/11/28 02:56:14;;;;;;;9.38;8.25;;;;;;;0.57;100.00;99054.66;7389232;19;20389;-62
2023/11/28 02:58:41;;;;;;;9.52;8.50;;;;;;;0.63;100.00;99058.47;7392403;19;20373;-61
2023/11/28 03:01:08;;;;;;;9.65;8.52;;;;;;;0.61;100.00;99061.22;7392284;19;20363;-61
2023/11/28 03:03:35;;;;;;;9.00;8.10;;;;;;;0.61;100.00;99061.22;7388255;19;20370;-63
2023/11/28 03:06:02;;;;;;;9.23;8.20;;;;;;;0.58;100.00;99062.34;7389273;19;20480;-63
2023/11/28 03:08:29;;;;;;;9.38;8.27;;;;;;;0.59;100.00;99060.56;7392335;19;20377;-60
2023/11/28 03:10:56;;;;;;;9.02;8.05;;;;;;;0.62;100.00;99065.47;7391116;19;20373;-62
2023/11/28 03:13:23;;;;;;;9.73;8.63;;;;;;;0.60;100.00;99064.81;7389766;19;20397;-63
2023/11/28 03:15:49;;;;;;;9.18;8.05;;;;;;;0.61;100.00;99071.66;7389963;19;20368;-63
2023/11/28 03:18:16;;;;;;;10.38;8.63;;;;;;;0.64;100.00;99076.59;7389322;19;20357;-62
2023/11/28 03:20:43;;;;;;;10.77;8.93;;;;;;;0.63;100.00;99080.16;7390306;19;20407;-61
2023/11/28 03:23:10;;;;;;;10.05;8.93;;;;;;;0.60;99.86;99080.47;7391505;19;20913;-62
2023/11/28 03:25:37;;;;;;;10.05;8.43;;;;;;;0.61;100.00;99077.69;7389645;19;20385;-61
2023/11/28 03:28:04;;;;;;;10.90;9.23;;;;;;;0.62;99.88;99078.53;7388139;19;20683;-61
2023/11/28 03:30:31;;;;;;;9.43;8.30;;;;;;;0.59;99.67;99081.44;7391525;19;20332;-62
2023/11/28 03:32:57;;;;;;;9.77;8.77;;;;;;;0.63;99.99;99076.75;7387392;19;20386;-64
2023/11/28 03:35:27;;;;;;;9.48;8.32;;;;;;;0.65;99.73;99077.41;7390361;19;20895;-63
2023/11/28 03:37:54;;;;;;;9.48;7.93;;;;;;;0.60;99.72;99085.69;7391690;19;20333;-63
2023/11/28 03:40:20;;;;;;;9.30;7.80;;;;;;;0.62;99.68;99086.38;7391221;19;20355;-62
2023/11/28 03:42:47;;;;;;;9.77;8.00;;;;;;;0.60;99.53;99085.69;7389024;19;20444;-62
2023/11/28 03:45:14;;;;;;;9.60;7.65;;;;;;;0.60;99.63;99091.72;7390652;19;20364;-62
2023/11/28 03:47:41;;;;;;;11.10;8.02;;;;;;;0.61;99.59;99092.53;7387503;19;20361;-63
2023/11/28 03:50:08;;;;;;;8.50;7.57;;;;;;;0.57;99.30;99097.25;7388441;19;20348;-59
2023/11/28 03:52:35;;;;;;;8.63;7.73;;;;;;;0.54;99.36;99099.34;7391344;19;20329;-63
2023/11/28 03:55:02;;;;;;;9.68;8.02;;;;;;;0.55;99.41;99104.41;7390179;19;20357;-63
2023/11/28 03:57:29;;;;;;;9.50;7.90;;;;;;;0.52;99.06;99103.88;7391041;19;20372;-62
2023/11/28 03:59:56;;;;;;;9.18;7.40;;;;;;;0.50;99.15;99116.25;7389611;19;20360;-62
2023/11/28 04:02:23;;;;;;;8.27;7.13;;;;;;;0.49;98.91;99114.59;7388990;19;20405;-60
2023/11/28 04:04:50;;;;;;;9.52;7.20;;;;;;;0.50;99.12;99111.84;7384511;19;20886;-62
2023/11/28 04:07:18;;;;;;;9.82;7.22;;;;;;;0.51;99.28;99118.72;7388972;19;20356;-62
2023/11/28 04:09:46;;;;;;;9.65;7.53;;;;;;;0.49;98.72;99125.03;7398115;19;20340;-62
2023/11/28 04:12:13;;;;;;;9.88;7.60;;;;;;;0.50;98.96;99126.69;7398326;19;20893;-63
2023/11/28 04:14:40;;;;;;;10.63;8.10;;;;;;;0.47;99.12;99134.78;7398178;19;20376;-66
2023/11/28 04:17:07;;;;;;;11.52;8.27;;;;;;;0.44;98.79;99132.50;7394646;19;20392;-63
2023/11/28 04:19:34;;;;;;;10.93;8.40;;;;;;;0.44;98.69;99145.53;7394929;19;20496;-62
2023/11/28 04:22:01;;;;;;;10.50;8.00;;;;;;;0.46;98.58;99146.22;7393850;19;20356;-59
2023/11/28 04:24:30;;;;;;;10.63;7.95;;;;;;;0.45;98.58;99157.59;7392096;19;20754;-63
2023/11/28 04:26:57;;;;;;;11.48;8.25;;;;;;;0.43;98.50;99156.97;7393816;19;20392;-61
2023/11/28 04:29:24;;;;;;;10.40;7.63;;;;;;;0.37;98.08;99151.34;7397190;19;20707;-62
2023/11/28 04:31:51;;;;;;;12.70;8.60;;;;;;;0.38;98.21;99150.41;7396528;19;20727;-60
2023/11/28 04:34:18;;;;;;;11.00;8.50;;;;;;;0.43;97.96;99156.97;7396488;19;20713;-63
2023/11/28 04:36:48;;;;;;;12.05;8.65;;;;;;;0.43;97.95;99151.75;7393549;19;20508;-60
2023/11/28 04:39:16;;;;;;;11.27;8.43;;;;;;;0.44;97.67;99163.81;7397403;19;20427;-63
2023/11/28 04:41:47;;;;;;;11.27;8.55;;;;;;;0.42;97.32;99161.34;7392451;19;20377;-63
2023/11/28 04:44:14;;;;;;;13.63;8.70;;;;;;;0.37;97.26;99153.97;7393541;19;20357;-62
2023/11/28 04:46:40;;;;;;;11.50;8.57;;;;;;;0.35;97.04;99160.28;7394495;19;20448;-62
2023/11/28 04:49:11;;;;;;;12.68;8.27;;;;;;;0.36;96.92;99173.19;7396206;19;20364;-62
2023/11/28 04:51:39;;;;;;;12.57;8.68;;;;;;;0.36;96.96;99173.19;7396647;19;20371;-59
2023/11/28 04:54:06;;;;;;;12.77;8.73;;;;;;;0.39;97.03;99167.66;7392173;19;20336;-62
2023/11/28 04:56:33;;;;;;;12.25;8.23;;;;;;;0.35;96.75;99170.72;7393608;19;20397;-61
2023/11/28 04:58:59;;;;;;;10.65;8.18;;;;;;;0.33;96.53;99173.47;7392361;19;20376;-62
2023/11/28 05:01:26;;;;;;;10.40;7.97;;;;;;;0.29;96.26;99185.16;7395064;19;20343;-62
2023/11/28 05:03:53;;;;;;;12.25;8.55;;;;;;;0.26;95.96;99182.03;7394698;19;20716;-61
2023/11/28 05:06:20;;;;;;;12.55;8.40;;;;;;;0.26;96.29;99189.88;7396152;19;20328;-62
2023/11/28 05:08:47;;;;;;;13.13;8.88;;;;;;;0.23;96.17;99187.53;7398201;19;20383;-59
2023/11/28 05:11:14;;;;;;;12.05;8.10;;;;;;;0.19;95.80;99197.44;7393490;19;21491;-63
2023/11/28 05:13:42;;;;;;;12.63;8.32;;;;;;;0.16;96.00;99202.94;7392941;19;20845;-60
2023/11/28 05:16:09;;;;;;;12.55;8.50;;;;;;;0.14;95.99;99197.06;7392271;19;20385;-61
2023/11/28 05:18:35;;;;;;;10.98;7.75;;;;;;;0.11;95.72;99206.00;7390870;19;20428;-61
2023/11/28 05:21:03;;;;;;;11.32;7.57;;;;;;;0.11;95.92;99206.00;7392757;19;20908;-60
2023/11/28 05:23:30;;;;;;;11.18;7.38;;;;;;;0.08;95.68;99215.88;7391608;19;20375;-65
2023/11/28 05:25:57;;;;;;;11.20;7.57;;;;;;;0.03;95.67;99218.09;7391532;19;20832;-62
2023/11/28 05:28:24;;;;;;;11.00;6.88;;;;;;;0.02;95.80;99226.88;7392624;19;20896;-60
2023/11/28 05:30:50;;;;;;;10.55;7.28;;;;;;;0.01;95.86;99220.03;7393839;19;20352;-60
2023/11/28 05:33:17;;;;;;;9.90;7.55;;;;;;;-0.04;95.72;99229.09;7393267;19;20364;-62
2023/11/28 05:35:44;;;;;;;10.07;6.73;;;;;;;-0.04;95.83;99236.94;7395273;19;20344;-61
2023/11/28 05:38:11;;;;;;;10.48;7.55;;;;;;;-0.04;95.77;99234.31;7397475;19;20379;-60
2023/11/28 05:40:39;;;;;;;10.97;6.30;;;;;;;-0.02;96.03;99235.00;7395066;19;20714;-61
2023/11/28 05:43:06;;;;;;;9.55;6.50;;;;;;;-0.02;95.63;99229.78;7395030;19;20369;-61
2023/11/28 05:45:33;;;;;;;8.53;5.90;;;;;;;-0.06;95.21;99235.44;7393553;19;20357;-65
2023/11/28 05:48:02;;;;;;;8.38;5.97;;;;;;;-0.11;94.74;99243.66;7394288;19;20363;-63
2023/11/28 05:50:30;;;;;;;9.32;5.88;;;;;;;-0.18;94.90;99242.59;7393493;19;20349;-59
2023/11/28 05:52:57;;;;;;;10.38;6.03;;;;;;;-0.19;95.10;99246.19;7391727;19;20626;-62
2023/11/28 05:55:25;;;;;;;8.30;5.70;;;;;;;-0.17;95.24;99254.69;7393814;19;20361;-62
2023/11/28 05:57:52;;;;;;;9.30;5.85;;;;;;;-0.18;95.23;99253.00;7393635;19;20361;-60
2023/11/28 06:00:19;;;;;;;10.57;5.50;;;;;;;-0.19;95.31;99251.38;7388360;19;20375;-60
2023/11/28 06:02:46;;;;;;;8.15;5.72;;;;;;;-0.18;95.00;99262.63;7395953;19;20390;-61
2023/11/28 06:05:13;;;;;;;8.80;5.50;;;;;;;-0.19;95.22;99266.19;7392768;19;20384;-61
2023/11/28 06:07:41;;;;;;;7.90;5.30;;;;;;;-0.19;95.36;99274.00;7394975;19;20698;-62
2023/11/28 06:10:13;;;;;;;9.48;5.30;;;;;;;-0.17;95.24;99280.75;7394738;19;20357;-61
2023/11/28 06:12:41;;;;;;;7.85;4.85;;;;;;;-0.18;95.00;99288.69;7390237;19;20491;-64
2023/11/28 06:15:08;;;;;;;78.20;48.17;;;;;;;-0.15;95.22;99286.63;7394220;19;20381;-64
2023/11/28 06:17:35;;;;;;;6.90;4.50;;;;;;;-0.14;94.07;99287.44;7394658;19;20659;-64
2023/11/28 06:20:04;;;;;;;6.88;4.43;;;;;;;-0.12;94.18;99293.34;7393762;19;20438;-63
2023/11/28 06:22:32;;;;;;;7.82;4.50;;;;;;;-0.12;93.80;99299.38;7393414;19;20344;-67
2023/11/28 06:24:59;;;;;;;6.57;4.13;;;;;;;-0.15;93.71;99291.84;7394864;19;20353;-64
2023/11/28 06:27:26;;;;;;;52.30;30.67;;;;;;;-0.11;93.95;99302.78;7392835;19;20416;-63
2023/11/28 06:29:52;;;;;;;12.40;8.05;;;;;;;-0.12;93.34;99303.78;7394526;19;20372;-64
2023/11/28 06:32:19;;;;;;;6.22;4.10;;;;;;;-0.14;93.11;99321.31;7396022;19;20744;-63
2023/11/28 06:34:47;;;;;;;6.22;4.00;;;;;;;-0.15;93.23;99325.72;7395706;19;20398;-63
2023/11/28 06:37:14;;;;;;;5.60;3.83;;;;;;;-0.12;93.27;99330.66;7393106;19;20411;-64
2023/11/28 06:39:41;;;;;;;6.00;3.85;;;;;;;-0.15;93.05;99340.53;7393990;19;20346;-63
2023/11/28 06:42:08;;;;;;;5.55;3.80;;;;;;;-0.23;92.30;99338.63;7393725;19;20365;-64
2023/11/28 06:44:35;;;;;;;6.13;3.95;;;;;;;-0.21;92.55;99347.13;7393806;19;20792;-63
2023/11/28 06:47:02;;;;;;;7.68;4.28;;;;;;;-0.20;92.81;99353.97;7395185;19;20448;-63
2023/11/28 06:49:31;;;;;;;6.50;3.63;;;;;;;-0.22;92.46;99361.09;7395209;19;20658;-63
2023/11/28 06:52:02;;;;;;;6.57;3.80;;;;;;;-0.24;92.66;99366.44;7395167;19;20895;-63
2023/11/28 06:54:29;;;;;;;5.05;3.47;;;;;;;-0.33;92.35;99367.28;7394625;19;20365;-64
2023/11/28 06:56:56;;;;;;;5.22;3.85;;;;;;;-0.32;92.30;99370.72;7394730;19;20848;-64
2023/11/28 06:59:23;;;;;;;4.95;3.50;;;;;;;-0.29;92.42;99389.50;7395028;19;20361;-64
2023/11/28 07:01:50;;;;;;;4.75;2.92;;;;;;;-0.36;92.04;99391.03;7394533;19;20343;-64
2023/11/28 07:04:17;;;;;;;5.57;3.72;;;;;;;-0.38;91.88;99397.31;7393211;19;20376;-64
2023/11/28 07:06:44;;;;;;;5.22;2.97;;;;;;;-0.41;92.01;99404.44;7395314;19;20356;-63
2023/11/28 07:09:10;;;;;;;5.15;3.30;;;;;;;-0.37;92.10;99409.38;7391773;19;20376;-64
2023/11/28 07:11:37;;;;;;;5.40;3.28;;;;;;;-0.35;92.58;99410.09;7394719;19;20364;-64
2023/11/28 07:14:05;;;;;;;4.80;3.30;;;;;;;-0.33;92.49;99418.59;7394715;19;20712;-64
2023/11/28 07:16:34;;;;;;;4.82;3.00;;;;;;;-0.30;92.74;99426.13;7392879;19;20381;-64
2023/11/28 07:19:01;;;;;;;4.80;3.10;;;;;;;-0.35;91.83;99426.53;7394825;19;20389;-63
2023/11/28 07:21:28;;;;;;;4.53;3.30;;;;;;;-0.31;92.40;99427.09;7394486;19;20364;-63
2023/11/28 07:23:55;;;;;;;4.70;2.93;;;;;;;-0.29;92.27;99428.59;7390589;19;20360;-63
2023/11/28 07:26:21;;;;;;;4.80;2.83;;;;;;;-0.33;91.84;99437.63;7387593;19;20372;-64
2023/11/28 07:28:48;;;;;;;5.10;3.40;;;;;;;-0.34;92.00;99437.75;7393677;19;20703;-64
2023/11/28 07:31:16;;;;;;;5.22;3.00;;;;;;;-0.37;91.84;99451.06;7393724;19;20352;-64
2023/11/28 07:33:43;;;;;;;4.40;3.08;;;;;;;-0.34;91.98;99454.25;7391028;19;20360;-64
2023/11/28 07:36:12;;;;;;;4.35;3.00;;;;;;;-0.39;91.63;99453.00;7392867;19;20344;-63
2023/11/28 07:38:43;;;;;;;5.00;3.03;;;;;;;-0.41;91.38;99448.72;7392091;19;20375;-64
2023/11/28 07:41:14;;;;;;;4.90;2.83;;;;;;;-0.41;91.47;99453.94;7393478;19;20364;-63
2023/11/28 07:43:42;;;;;;;4.85;3.05;;;;;;;-0.50;91.47;99462.56;7401669;19;20872;-64
2023/11/28 07:46:10;;;;;;;4.32;2.88;;;;;;;-0.51;91.44;99473.97;7394800;19;20340;-64
2023/11/28 07:48:36;;;;;;;4.63;2.97;;;;;;;-0.55;91.13;99469.13;7400789;19;20352;-63
2023/11/28 07:51:04;;;;;;;4.47;2.70;;;;;;;-0.58;91.26;99475.44;7395421;19;20381;-63
2023/11/28 07:53:32;;;;;;;5.03;2.83;;;;;;;-0.56;91.86;99477.91;7398592;19;20385;-64
2023/11/28 07:55:58;;;;;;;4.68;3.35;;;;;;;-0.53;91.75;99485.44;7396968;19;20364;-63
2023/11/28 07:58:25;;;;;;;4.40;2.67;;;;;;;-0.62;90.97;99490.53;7399087;19;20344;-63
2023/11/28 08:00:52;;;;;;;5.45;2.90;;;;;;;-0.66;90.94;99496.09;7399435;19;20360;-64
2023/11/28 08:03:19;;;;;;;4.25;2.67;;;;;;;-0.71;90.99;99496.50;7395946;19;20432;-64
2023/11/28 08:05:46;;;;;;;4.10;2.80;;;;;;;-0.76;91.20;99493.50;7397233;19;20376;-64
2023/11/28 08:08:15;;;;;;;3.92;2.83;;;;;;;-0.82;91.09;99502.63;7400862;19;20485;-63
2023/11/28 08:10:43;;;;;;;4.63;2.85;;;;;;;-0.83;91.15;99497.56;7398872;19;20370;-64
2023/11/28 08:13:11;;;;;;;5.03;3.45;;;;;;;-0.85;91.51;99500.31;7401167;19;20371;-63
2023/11/28 08:15:38;;;;;;;5.60;3.60;;;;;;;-0.90;91.50;99506.84;7400234;19;20366;-63
2023/11/28 08:18:05;;;;;;;4.77;3.17;;;;;;;-0.98;91.17;99509.28;7400846;19;20377;-64
2023/11/28 08:20:32;;;;;;;4.90;3.30;;;;;;;-0.98;91.51;99515.31;7397713;19;20344;-64
2023/11/28 08:22:58;;;;;;;4.78;3.20;;;;;;;-0.96;91.77;99510.78;7400858;19;20467;-63
2023/11/28 08:25:25;;;;;;;4.32;3.30;;;;;;;-0.96;91.25;99523.81;7398975;19;20361;-64
2023/11/28 08:27:52;;;;;;;4.55;2.92;;;;;;;-0.97;91.43;99522.19;7397573;19;20352;-64
2023/11/28 08:30:19;;;;;;;4.43;2.90;;;;;;;-0.97;91.70;99532.59;7398627;19;20938;-64
2023/11/28 08:32:46;;;;;;;4.38;2.80;;;;;;;-0.93;91.80;99531.38;7399042;19;20356;-64
2023/11/28 08:35:13;;;;;;;5.18;2.97;;;;;;;-0.92;91.56;99540.00;7396685;19;20368;-64
2023/11/28 08:37:40;;;;;;;5.93;3.17;;;;;;;-0.91;91.40;99536.47;7394163;19;20868;-64
2023/11/28 08:40:08;;;;;;;4.93;3.10;;;;;;;-0.87;91.54;99541.28;7392637;19;20383;-64
2023/11/28 08:42:35;;;;;;;5.35;2.88;;;;;;;-0.83;91.45;99550.47;7397926;19;20356;-63
2023/11/28 08:45:01;;;;;;;4.50;2.90;;;;;;;-0.74;91.55;99550.66;7394924;19;20373;-63
2023/11/28 08:47:28;;;;;;;4.18;2.90;;;;;;;-0.68;91.40;99553.56;7399613;19;20864;-63
2023/11/28 08:49:59;;;;;;;4.65;2.70;;;;;;;-0.59;91.18;99553.72;7395789;19;20369;-64
2023/11/28 08:52:27;;;;;;;3.65;2.60;;;;;;;-0.47;91.35;99545.69;7398487;19;20364;-64
2023/11/28 08:54:54;;;;;;;3.58;2.75;;;;;;;-0.28;91.26;99554.50;7398638;19;20364;-64
2023/11/28 08:57:21;;;;;;;4.35;2.33;;;;;;;-0.17;90.41;99556.16;7397973;19;20361;-64
2023/11/28 08:59:48;;;;;;;4.05;2.53;;;;;;;-0.03;90.11;99559.22;7397605;19;20374;-63
2023/11/28 09:02:15;;;;;;;4.93;2.65;;;;;;;0.16;90.56;99565.41;7397401;19;20692;-64
2023/11/28 09:04:42;;;;;;;4.15;2.50;;;;;;;0.26;89.44;99566.25;7397634;19;20352;-64
2023/11/28 09:07:09;;;;;;;4.30;2.47;;;;;;;0.35;88.76;99567.22;7398614;19;20424;-64
2023/11/28 09:09:36;;;;;;;3.95;2.40;;;;;;;0.43;89.12;99574.38;7398076;19;20368;-64
2023/11/28 09:12:03;;;;;;;3.30;2.20;;;;;;;0.45;88.48;99582.84;7398776;19;20697;-64
2023/11/28 09:14:30;;;;;;;3.38;2.20;;;;;;;0.44;87.53;99587.25;7398130;19;20356;-64
2023/11/28 09:17:09;;;;;;;3.70;2.20;;;;;;;0.45;87.46;99583.69;7398105;19;20333;-64
2023/11/28 09:19:36;;;;;;;3.65;2.10;;;;;;;0.50;87.58;99589.31;7397230;19;20344;-64
2023/11/28 09:22:05;;;;;;;3.17;2.22;;;;;;;0.48;87.38;99590.44;7395760;19;20372;-63
2023/11/28 09:24:32;;;;;;;3.92;2.38;;;;;;;0.46;87.07;99594.97;7392962;19;20381;-64
2023/11/28 09:26:59;;;;;;;3.37;2.10;;;;;;;0.48;86.93;99593.03;7395574;19;20693;-64
2023/11/28 09:29:26;;;;;;;3.80;2.45;;;;;;;0.48;87.28;99596.47;7390005;19;20387;-64
2023/11/28 09:31:54;;;;;;;4.67;2.60;;;;;;;0.52;87.55;99595.22;7388790;19;20370;-64
2023/11/28 09:34:22;;;;;;;2.83;2.03;;;;;;;0.55;87.07;99604.56;7395924;19;20356;-64
2023/11/28 09:36:49;;;;;;;3.63;2.30;;;;;;;0.57;87.02;99602.63;7396114;19;20364;-64
2023/11/28 09:39:15;;;;;;;3.83;2.10;;;;;;;0.58;87.11;99609.53;7397227;19;20383;-64
2023/11/28 09:41:43;;;;;;;4.03;2.38;;;;;;;0.62;86.81;99608.28;7396274;19;20368;-63
2023/11/28 09:44:15;;;;;;;2.83;1.90;;;;;;;0.63;86.72;99607.31;7395502;19;20642;-64
2023/11/28 09:46:49;;;;;;;3.63;2.20;;;;;;;0.66;87.04;99607.06;7393443;19;20380;-64
2023/11/28 09:49:21;;;;;;;3.67;2.50;;;;;;;0.69;86.72;99611.97;7395719;19;20409;-64
2023/11/28 09:51:48;;;;;;;3.42;2.60;;;;;;;0.76;87.19;99623.50;7395774;19;20372;-64
2023/11/28 09:54:16;;;;;;;3.70;2.42;;;;;;;0.79;86.82;99622.44;7396214;19;20661;-64
2023/11/28 09:56:46;;;;;;;3.20;2.35;;;;;;;0.78;86.33;99616.38;7396577;19;20368;-64
2023/11/28 09:59:14;;;;;;;3.25;2.28;;;;;;;0.90;87.02;99618.84;7393566;19;20440;-64
2023/11/28 10:01:45;;;;;;;3.70;2.53;;;;;;;0.97;86.97;99620.75;7395320;19;20457;-63
2023/11/28 10:04:12;;;;;;;2.80;1.92;;;;;;;0.97;86.42;99623.34;7393865;19;20381;-64
2023/11/28 10:06:46;;;;;;;3.30;2.20;;;;;;;1.00;86.14;99624.88;7392316;19;20349;-64
2023/11/28 10:09:15;;;;;;;3.60;2.30;;;;;;;1.03;86.21;99619.38;7392873;19;20373;-65
2023/11/28 10:11:43;;;;;;;3.22;2.45;;;;;;;1.13;86.61;99620.19;7394985;19;20376;-64
2023/11/28 10:14:10;;;;;;;4.20;2.45;;;;;;;1.14;86.03;99624.44;7395125;19;20336;-64
2023/11/28 10:16:46;;;;;;;3.30;2.30;;;;;;;1.22;85.70;99616.72;7393909;19;20850;-66
2023/11/28 10:19:13;;;;;;;2.60;2.00;;;;;;;1.24;85.49;99632.25;7395326;19;20353;-66
2023/11/28 10:21:40;;;;;;;4.45;2.80;;;;;;;1.41;86.26;99623.69;7394435;19;20373;-66
2023/11/28 10:24:11;;;;;;;3.60;2.20;;;;;;;1.47;84.82;99630.13;7395430;19;20368;-66
2023/11/28 10:26:38;;;;;;;3.33;2.90;;;;;;;1.53;85.23;99626.13;7392275;19;20428;-66
2023/11/28 10:29:06;;;;;;;3.63;2.50;;;;;;;1.63;85.51;99638.19;7392184;19;20382;-66
2023/11/28 10:31:37;;;;;;;3.38;2.80;;;;;;;1.72;84.77;99630.44;7393598;19;20683;-66
2023/11/28 10:34:10;;;;;;;4.72;2.63;;;;;;;1.75;83.99;99630.16;7396634;19;20364;-66
2023/11/28 10:36:42;;;;;;;2.80;2.20;;;;;;;1.81;84.14;99638.25;7394471;19;20328;-66
2023/11/28 10:39:15;;;;;;;2.97;1.90;;;;;;;1.77;83.11;99638.69;7390920;19;20344;-66
2023/11/28 10:41:42;;;;;;;3.13;2.10;;;;;;;1.80;83.44;99633.16;7395315;19;20363;-66
2023/11/28 10:44:09;;;;;;;2.80;2.28;;;;;;;1.83;82.99;99632.91;7391887;19;20697;-67
2023/11/28 10:46:38;;;;;;;2.58;2.03;;;;;;;1.89;83.05;99637.56;7391417;19;20345;-66
2023/11/28 10:49:06;;;;;;;3.28;2.40;;;;;;;1.97;82.55;99637.63;7393825;19;20343;-66
2023/11/28 10:51:33;;;;;;;3.05;2.08;;;;;;;2.02;82.57;99640.63;7394240;19;20468;-66
2023/11/28 10:54:07;;;;;;;2.30;1.70;;;;;;;2.10;82.58;99634.66;7393334;19;20356;-66
2023/11/28 10:56:36;;;;;;;4.38;2.30;;;;;;;2.10;82.33;99633.84;7394319;19;20386;-66
2023/11/28 10:59:08;;;;;;;2.97;2.00;;;;;;;1.99;81.73;99640.09;7393116;19;20387;-66
2023/11/28 11:01:35;;;;;;;2.67;1.77;;;;;;;1.94;81.55;99647.56;7392467;19;20356;-66
2023/11/28 11:04:02;;;;;;;2.10;1.63;;;;;;;1.95;81.11;99651.81;7391382;19;20368;-66
2023/11/28 11:06:30;;;;;;;2.70;1.73;;;;;;;2.03;81.86;99649.31;7390018;19;20856;-66
2023/11/28 11:08:58;;;;;;;2.40;1.60;;;;;;;1.93;80.96;99644.09;7394421;19;20851;-66
2023/11/28 11:11:26;;;;;;;2.33;1.80;;;;;;;1.79;81.38;99647.22;7393639;19;20424;-66
2023/11/28 11:14:01;;;;;;;2.28;1.52;;;;;;;1.80;82.04;99652.28;7391513;19;20369;-65
2023/11/28 11:16:37;;;;;;;2.17;1.60;;;;;;;1.82;81.40;99662.59;7391719;19;20951;-65
2023/11/28 11:19:06;;;;;;;2.35;1.70;;;;;;;1.92;81.38;99666.00;7392376;19;20436;-66
2023/11/28 11:21:42;;;;;;;3.05;1.80;;;;;;;2.13;81.11;99670.19;7393786;19;20376;-66
2023/11/28 11:24:19;;;;;;;3.08;1.73;;;;;;;2.46;81.13;99660.88;7391881;19;20358;-65
2023/11/28 11:26:49;;;;;;;3.22;1.92;;;;;;;2.65;79.91;99660.75;7391698;19;20381;-65
2023/11/28 11:29:25;;;;;;;2.70;1.90;;;;;;;2.89;80.39;99666.34;7393774;19;20357;-65
2023/11/28 11:31:56;;;;;;;3.20;2.10;;;;;;;2.93;78.97;99670.31;7394030;19;20365;-65
2023/11/28 11:34:42;;;;;;;2.17;1.77;;;;;;;2.88;78.37;99675.22;7390227;19;20364;-65
2023/11/28 11:37:28;;;;;;;2.90;2.00;;;;;;;2.76;78.71;99688.53;7393494;19;20384;-65
2023/11/28 11:39:59;;;;;;;3.40;1.90;;;;;;;2.61;79.14;99679.53;7392568;19;20381;-65
2023/11/28 11:42:26;;;;;;;3.05;2.13;;;;;;;2.56;79.74;99677.34;7393511;19;20381;-65